Diosdado Macapagal International Airport
RPLC : now visible

Airfield :











YOU CAN JOIN US ON...

 
LOGIN :

Register | Disclaimer

   EN    FR    IT 

 









Legend :    VFR   Marginal VFR   IFR   Intensive IFR   Very Intensive IFR
Visi :
Ceiling :
>= 8 km
>= 3000ft
5 to 8 km
1000 to 3000 ft
1500m to 5 km
500 to 1000 ft
800 to 1500m
200 to 500 ft
< 800m
< 200 ft
Symbols :   Thunderstorms  Fog  Heavy snow  Heavy precipitations  Wind > 20 kt






- Airport Elevation : 484 ft
- IATA code : CRK


RPLC - Diosdado Macapagal International

CURRENT METAR :
  • 150900Z 18008KT 4000 -RA SCT018 BKN090 28/25 Q1007 RMK A2974

EXPIRED METARs :
  • 150800Z 18006KT 6000 -RA SCT018 BKN100 29/24 Q1006 RMK A2971
  • 150700Z 18010KT 7000 VCSH FEW015CB SCT018 BKN100 30/24 Q1006 RMK A2971 CB/VCSH N

TAF TAF RPLC
Valid from the 15 at 06:00 until the 16 at 12:00 UTC


150500Z 1506/1612 16006KT 8000 SCT020 BKN100 TX34/1506Z TN25/1521Z
TEMPO 1506/1512 18008KT 6000 -TSRA FEW015CB SCT020 OVC100
RPHI FIR / Asia



MET'MAP, your aeronautical weather chart ! - Copyright ORBIFLY December 2007 - Disclaimer

ORBIFLY MET'MAP TEAM :

Programming & Development : Alexandra Zaïnal
Original concept : Baudouin d'Aumeries
Technical & hardware support : Manuel Goepfert
Assistance : Marc-Olivier Méhu




SOURCES & CREDITS :

   NOAA       Earth
Advisory